createdAt,value
2018-01-26T00:01:43.461Z,9.37
2018-01-26T00:04:12.239Z,9.47
2018-01-26T00:06:45.152Z,8.70
2018-01-26T00:09:17.170Z,7.33
2018-01-26T00:11:46.735Z,9.07
2018-01-26T00:14:17.160Z,7.50
2018-01-26T00:16:47.167Z,9.93
2018-01-26T00:19:16.228Z,7.93
2018-01-26T00:21:45.669Z,15.10
2018-01-26T00:24:13.414Z,10.87
2018-01-26T00:26:43.951Z,10.13
2018-01-26T00:29:13.124Z,8.20
2018-01-26T00:31:40.875Z,8.80
2018-01-26T00:34:11.712Z,10.03
2018-01-26T00:36:46.514Z,15.93
2018-01-26T00:39:14.510Z,14.37
2018-01-26T00:41:43.273Z,10.77
2018-01-26T00:44:13.827Z,12.77
2018-01-26T00:46:46.436Z,12.70
2018-01-26T00:49:14.098Z,8.53
2018-01-26T00:51:42.174Z,8.97
2018-01-26T00:54:12.996Z,9.80
2018-01-26T00:56:43.650Z,12.73
2018-01-26T00:59:14.804Z,18.13
2018-01-26T01:01:45.738Z,22.97
2018-01-26T01:04:17.830Z,26.47
2018-01-26T01:06:48.308Z,30.67
2018-01-26T01:09:17.969Z,21.97
2018-01-26T01:11:49.908Z,15.30
2018-01-26T01:14:21.020Z,12.03
2018-01-26T01:16:59.417Z,9.67
2018-01-26T01:19:30.949Z,10.07
2018-01-26T01:22:09.548Z,7.13
2018-01-26T01:24:43.259Z,10.70
2018-01-26T01:27:13.007Z,8.43
2018-01-26T01:29:44.837Z,7.10
2018-01-26T01:32:14.661Z,6.67
2018-01-26T01:34:50.499Z,5.20
2018-01-26T01:37:22.367Z,6.80
2018-01-26T01:40:01.565Z,5.80
2018-01-26T01:42:42.394Z,6.47
2018-01-26T01:45:24.266Z,6.57
2018-01-26T01:48:04.013Z,5.93
2018-01-26T01:50:33.363Z,8.17
2018-01-26T01:53:08.020Z,7.40
2018-01-26T01:55:51.066Z,8.07
2018-01-26T01:58:23.127Z,7.90
2018-01-26T02:00:57.008Z,7.57
2018-01-26T02:03:29.814Z,6.30
2018-01-26T02:06:02.891Z,6.17
2018-01-26T02:08:36.082Z,6.40
2018-01-26T02:11:06.003Z,5.33
2018-01-26T02:13:39.084Z,5.13
2018-01-26T02:16:18.324Z,5.83
2018-01-26T02:18:51.821Z,5.70
2018-01-26T02:21:23.339Z,6.27
2018-01-26T02:23:56.665Z,8.80
2018-01-26T02:26:32.259Z,7.77
2018-01-26T02:29:04.345Z,5.53
2018-01-26T02:31:35.767Z,4.83
2018-01-26T02:34:06.785Z,5.40
2018-01-26T02:36:46.881Z,4.47
2018-01-26T02:39:18.677Z,4.20
2018-01-26T02:41:48.933Z,4.37
2018-01-26T02:44:19.334Z,5.23
2018-01-26T02:46:51.932Z,5.40
2018-01-26T02:49:25.902Z,4.40
2018-01-26T02:52:03.805Z,7.03
2018-01-26T02:54:44.326Z,6.53
2018-01-26T02:57:15.721Z,8.80
2018-01-26T02:59:52.388Z,7.60
2018-01-26T03:02:21.238Z,6.17
2018-01-26T03:07:39.413Z,5.90
2018-01-26T03:10:14.709Z,4.87
2018-01-26T03:12:47.060Z,4.90
2018-01-26T03:15:20.429Z,5.30
2018-01-26T03:17:56.807Z,5.30
2018-01-26T03:20:26.712Z,4.77
2018-01-26T03:22:57.618Z,3.60
2018-01-26T03:25:36.516Z,4.33
2018-01-26T03:28:08.688Z,5.67
2018-01-26T03:30:48.146Z,5.80
2018-01-26T03:33:19.500Z,8.00
2018-01-26T03:35:58.954Z,22.43
2018-01-26T03:38:28.690Z,24.13
2018-01-26T03:40:58.971Z,16.83
2018-01-26T03:43:31.475Z,10.43
2018-01-26T03:46:03.644Z,12.17
2018-01-26T03:48:35.700Z,11.20
2018-01-26T03:51:06.031Z,12.10
2018-01-26T03:53:36.463Z,8.27
2018-01-26T03:56:09.293Z,9.33
2018-01-26T03:58:38.781Z,6.90
2018-01-26T04:01:08.145Z,5.13
2018-01-26T04:03:43.460Z,6.77
2018-01-26T04:06:23.985Z,16.90
2018-01-26T04:08:53.724Z,17.00
2018-01-26T04:11:28.862Z,12.90
2018-01-26T04:14:01.714Z,7.93
2018-01-26T04:16:36.845Z,5.80
2018-01-26T04:19:06.357Z,5.23
2018-01-26T04:21:34.831Z,6.10
2018-01-26T04:24:03.577Z,7.33
2018-01-26T04:26:36.490Z,5.87
2018-01-26T04:29:14.915Z,12.70
2018-01-26T04:31:50.393Z,5.63
2018-01-26T04:34:21.713Z,11.63
2018-01-26T04:36:52.384Z,12.40
2018-01-26T04:39:22.214Z,9.67
2018-01-26T04:41:55.412Z,7.27
2018-01-26T04:44:28.334Z,6.57
2018-01-26T04:46:58.161Z,7.97
2018-01-26T04:49:31.820Z,12.33
2018-01-26T04:52:08.033Z,13.10
2018-01-26T04:54:46.074Z,14.43
2018-01-26T04:57:16.472Z,15.73
2018-01-26T04:59:45.529Z,18.37
2018-01-26T05:02:21.799Z,10.10
2018-01-26T05:05:03.273Z,13.60
2018-01-26T05:07:40.452Z,12.30
2018-01-26T05:15:59.630Z,20.47
2018-01-26T05:18:40.078Z,27.77
2018-01-26T05:21:19.908Z,34.80
2018-01-26T05:23:48.871Z,38.43
2018-01-26T05:26:26.289Z,32.67
2018-01-26T05:28:55.200Z,24.73
2018-01-26T05:31:27.890Z,50.67
2018-01-26T05:33:58.460Z,41.10
2018-01-26T05:36:27.176Z,37.00
2018-01-26T05:38:57.958Z,29.00
2018-01-26T05:41:29.618Z,46.17
2018-01-26T05:44:00.197Z,38.63
2018-01-26T05:46:29.545Z,32.67
2018-01-26T05:48:59.059Z,56.03
2018-01-26T05:51:29.075Z,47.73
2018-01-26T05:54:02.873Z,55.27
2018-01-26T05:56:30.878Z,35.90
2018-01-26T05:58:58.834Z,23.57
2018-01-26T06:01:33.331Z,25.23
2018-01-26T06:04:13.731Z,21.70
2018-01-26T06:06:42.991Z,15.93
2018-01-26T06:09:13.144Z,17.47
2018-01-26T06:11:42.305Z,17.27
2018-01-26T06:14:17.341Z,15.90
2018-01-26T06:16:48.942Z,19.53
2018-01-26T06:19:26.388Z,21.07
2018-01-26T06:21:58.150Z,23.97
2018-01-26T06:24:36.149Z,22.53
2018-01-26T06:27:06.165Z,18.07
2018-01-26T06:29:37.508Z,15.10
2018-01-26T06:32:11.572Z,13.57
2018-01-26T06:34:44.445Z,9.90
2018-01-26T06:37:14.721Z,8.20
2018-01-26T06:39:45.842Z,11.07
2018-01-26T06:42:16.540Z,14.43
2018-01-26T06:44:56.610Z,16.80
2018-01-26T06:47:26.887Z,27.80
2018-01-26T06:50:01.075Z,27.50
2018-01-26T06:52:35.241Z,27.83
2018-01-26T06:55:17.074Z,21.63
2018-01-26T06:57:48.608Z,15.33
2018-01-26T07:00:16.341Z,14.87
2018-01-26T07:02:43.038Z,10.03
2018-01-26T07:05:11.174Z,11.07
2018-01-26T07:07:38.428Z,9.40
2018-01-26T07:10:11.917Z,11.40
2018-01-26T07:12:44.570Z,9.07
2018-01-26T07:15:27.173Z,9.63
2018-01-26T07:17:59.912Z,9.80
2018-01-26T07:20:27.741Z,10.20
2018-01-26T07:23:00.540Z,14.00
2018-01-26T07:25:30.659Z,11.47
2018-01-26T07:27:57.234Z,14.43
2018-01-26T07:30:24.898Z,28.77
2018-01-26T07:32:51.926Z,25.43
2018-01-26T07:35:19.111Z,28.87
2018-01-26T07:37:51.974Z,24.70
2018-01-26T07:40:18.890Z,21.80
2018-01-26T07:42:46.389Z,47.23
2018-01-26T07:45:15.882Z,24.70
2018-01-26T07:47:48.875Z,48.20
2018-01-26T07:50:17.194Z,23.33
2018-01-26T07:52:45.966Z,42.07
2018-01-26T07:55:22.099Z,42.53
2018-01-26T07:57:48.779Z,27.07
2018-01-26T08:00:15.427Z,20.57
2018-01-26T08:02:48.356Z,20.33
2018-01-26T08:05:18.187Z,16.73
2018-01-26T08:07:45.372Z,25.70
2018-01-26T08:10:18.210Z,25.90
2018-01-26T08:12:45.556Z,10.30
2018-01-26T08:15:13.267Z,11.30
2018-01-26T08:17:39.661Z,12.53
2018-01-26T08:20:07.422Z,8.37
2018-01-26T08:22:34.041Z,39.23
2018-01-26T08:25:01.292Z,8.07
2018-01-26T08:27:28.689Z,15.90
2018-01-26T08:29:56.365Z,10.40
2018-01-26T08:32:24.196Z,6.37
2018-01-26T08:34:50.989Z,9.97
2018-01-26T08:37:18.797Z,14.67
2018-01-26T08:39:48.296Z,17.93
2018-01-26T08:42:16.200Z,27.77
2018-01-26T08:44:45.822Z,7.93
2018-01-26T08:47:13.297Z,7.77
2018-01-26T08:49:41.016Z,11.73
2018-01-26T08:52:08.465Z,6.33
2018-01-26T08:54:35.973Z,12.83
2018-01-26T08:57:05.231Z,4.17
2018-01-26T08:59:33.148Z,12.20
2018-01-26T09:02:01.267Z,6.30
2018-01-26T09:04:28.329Z,19.67
2018-01-26T09:07:01.019Z,17.13
2018-01-26T09:09:27.850Z,11.30
2018-01-26T09:12:01.188Z,18.30
2018-01-26T09:14:33.286Z,11.63
2018-01-26T09:17:02.355Z,7.60
2018-01-26T09:19:32.956Z,8.63
2018-01-26T09:22:06.325Z,9.67
2018-01-26T09:24:32.900Z,19.87
2018-01-26T09:27:05.306Z,7.10
2018-01-26T09:29:32.595Z,12.17
2018-01-26T09:32:06.014Z,17.33
2018-01-26T09:34:34.675Z,7.73
2018-01-26T09:37:02.140Z,11.23
2018-01-26T09:39:35.267Z,5.73
2018-01-26T09:42:03.199Z,8.07
2018-01-26T09:44:30.161Z,10.20
2018-01-26T09:46:59.067Z,10.90
2018-01-26T09:49:27.353Z,14.30
2018-01-26T09:51:54.462Z,12.40
2018-01-26T09:54:28.151Z,7.23
2018-01-26T09:57:01.450Z,9.93
2018-01-26T09:59:30.414Z,6.47
2018-01-26T10:01:57.647Z,16.40
2018-01-26T10:04:25.070Z,14.70
2018-01-26T10:06:51.663Z,10.20
2018-01-26T10:09:18.703Z,9.10
2018-01-26T10:11:45.514Z,16.83
2018-01-26T10:14:13.812Z,13.20
2018-01-26T10:16:48.857Z,13.13
2018-01-26T10:19:16.353Z,9.73
2018-01-26T10:21:49.080Z,18.87
2018-01-26T10:24:25.061Z,19.73
2018-01-26T10:26:52.976Z,7.30
2018-01-26T10:29:20.030Z,4.73
2018-01-26T10:31:47.127Z,11.30
2018-01-26T10:34:13.846Z,5.90
2018-01-26T10:36:42.070Z,9.90
2018-01-26T10:39:16.681Z,13.03
2018-01-26T10:41:45.447Z,6.20
2018-01-26T10:44:16.029Z,5.67
2018-01-26T10:46:42.878Z,7.73
2018-01-26T10:49:09.827Z,15.73
2018-01-26T10:51:42.144Z,36.97
2018-01-26T10:54:16.288Z,26.30
2018-01-26T10:56:49.425Z,26.20
2018-01-26T10:59:22.988Z,22.23
2018-01-26T11:01:49.976Z,33.50
2018-01-26T11:04:16.874Z,20.60
2018-01-26T11:06:43.336Z,35.33
2018-01-26T11:09:09.838Z,22.97
2018-01-26T11:11:36.775Z,88.10
2018-01-26T11:14:03.679Z,6.27
2018-01-26T11:16:30.577Z,15.27
2018-01-26T11:18:57.742Z,14.30
2018-01-26T11:21:24.978Z,21.33
2018-01-26T11:23:53.421Z,10.77
2018-01-26T11:26:20.902Z,13.70
2018-01-26T11:28:47.569Z,23.60
2018-01-26T11:31:14.298Z,10.63
2018-01-26T11:33:43.037Z,9.67
2018-01-26T11:36:10.458Z,11.13
2018-01-26T11:38:36.969Z,42.70
2018-01-26T11:41:04.334Z,25.87
2018-01-26T11:43:32.157Z,5.03
2018-01-26T11:45:58.712Z,13.00
2018-01-26T11:48:25.322Z,7.60
2018-01-26T11:50:51.909Z,19.87
2018-01-26T11:53:20.169Z,26.97
2018-01-26T11:55:47.341Z,6.93
2018-01-26T11:58:14.025Z,10.17
2018-01-26T12:00:41.483Z,12.80
2018-01-26T12:03:11.730Z,24.63
2018-01-26T12:05:38.660Z,27.27
2018-01-26T12:08:05.396Z,73.50
2018-01-26T12:10:32.596Z,105.00
2018-01-26T12:13:00.800Z,78.40
2018-01-26T12:15:28.361Z,33.10
2018-01-26T12:17:55.109Z,17.63
2018-01-26T12:20:22.588Z,7.73
2018-01-26T12:22:50.349Z,9.63
2018-01-26T12:25:18.324Z,5.90
2018-01-26T12:27:44.859Z,4.17
2018-01-26T12:30:11.285Z,6.57
2018-01-26T12:32:37.881Z,6.83
2018-01-26T12:35:08.719Z,8.60
2018-01-26T12:37:39.783Z,6.50
2018-01-26T12:40:10.286Z,13.97
2018-01-26T12:42:43.093Z,6.67
2018-01-26T12:45:13.940Z,5.13
2018-01-26T12:47:44.254Z,7.00
2018-01-26T12:50:14.974Z,12.50
2018-01-26T12:52:45.741Z,39.57
2018-01-26T12:55:21.520Z,15.60
2018-01-26T12:57:52.003Z,20.00
2018-01-26T13:00:21.863Z,27.20
2018-01-26T13:02:50.191Z,21.57
2018-01-26T13:05:18.595Z,11.90
2018-01-26T13:07:47.398Z,25.23
2018-01-26T13:10:17.321Z,9.27
2018-01-26T13:12:48.399Z,12.83
2018-01-26T13:15:17.947Z,16.50
2018-01-26T13:17:48.760Z,8.20
2018-01-26T13:20:22.088Z,20.80
2018-01-26T13:22:52.669Z,35.33
2018-01-26T13:25:21.557Z,10.17
2018-01-26T13:27:52.445Z,10.30
2018-01-26T13:30:25.171Z,9.93
2018-01-26T13:32:57.076Z,15.97
2018-01-26T13:35:28.792Z,16.67
2018-01-26T13:38:02.704Z,13.50
2018-01-26T13:40:32.671Z,19.20
2018-01-26T13:43:05.050Z,12.33
2018-01-26T13:45:39.421Z,8.93
2018-01-26T13:48:13.000Z,6.70
2018-01-26T13:53:20.100Z,7.73
2018-01-26T13:55:52.090Z,6.90
2018-01-26T13:58:24.857Z,6.40
2018-01-26T14:00:57.982Z,29.37
2018-01-26T14:03:30.076Z,8.80
2018-01-26T14:06:00.554Z,7.53
2018-01-26T14:08:32.640Z,10.20
2018-01-26T14:11:05.021Z,5.67
2018-01-26T14:13:39.634Z,39.60
2018-01-26T14:16:10.353Z,13.50
2018-01-26T14:18:40.918Z,35.70
2018-01-26T14:21:12.211Z,10.10
2018-01-26T14:23:45.928Z,19.77
2018-01-26T14:26:20.604Z,20.27
2018-01-26T14:28:52.248Z,11.57
2018-01-26T14:31:24.470Z,14.20
2018-01-26T14:33:54.817Z,18.30
2018-01-26T14:36:22.260Z,16.10
2018-01-26T14:38:50.564Z,19.53
2018-01-26T14:41:18.908Z,13.00
2018-01-26T14:43:51.134Z,13.30
2018-01-26T14:46:20.005Z,7.20
2018-01-26T14:48:51.076Z,16.60
2018-01-26T14:51:19.330Z,19.53
2018-01-26T14:53:53.329Z,24.77
2018-01-26T14:56:22.195Z,38.43
2018-01-26T14:58:51.269Z,38.57
2018-01-26T15:01:21.679Z,79.67
2018-01-26T15:03:55.020Z,51.70
2018-01-26T15:06:26.826Z,26.57
2018-01-26T15:08:55.348Z,26.30
2018-01-26T15:11:24.430Z,20.10
2018-01-26T15:13:59.520Z,21.67
2018-01-26T15:16:32.033Z,14.27
2018-01-26T15:19:04.213Z,23.37
2018-01-26T15:21:36.656Z,23.67
2018-01-26T15:24:09.740Z,28.17
2018-01-26T15:26:43.149Z,22.20
2018-01-26T15:29:14.037Z,22.57
2018-01-26T15:34:21.853Z,27.03
2018-01-26T15:36:55.178Z,21.93
2018-01-26T15:39:26.472Z,35.23
2018-01-26T15:41:59.346Z,33.07
2018-01-26T15:44:32.880Z,37.57
2018-01-26T15:47:04.660Z,47.93
2018-01-26T15:49:31.854Z,45.90
2018-01-26T15:52:00.549Z,27.87
2018-01-26T15:54:33.644Z,20.27
2018-01-26T15:57:04.294Z,25.23
2018-01-26T15:59:34.361Z,20.33
2018-01-26T16:02:06.674Z,30.40
2018-01-26T16:04:40.250Z,39.43
2018-01-26T16:07:13.771Z,34.63
2018-01-26T16:09:42.193Z,26.20
2018-01-26T16:12:10.224Z,26.40
2018-01-26T16:14:40.045Z,47.60
2018-01-26T16:17:06.354Z,48.30
2018-01-26T16:19:38.333Z,43.23
2018-01-26T16:22:06.010Z,36.07
2018-01-26T16:24:35.811Z,44.93
2018-01-26T16:27:07.187Z,38.20
2018-01-26T16:29:35.804Z,54.93
2018-01-26T16:32:04.700Z,37.27
2018-01-26T16:34:36.898Z,32.63
2018-01-26T16:37:06.412Z,40.80
2018-01-26T16:39:37.924Z,52.50
2018-01-26T16:42:09.122Z,52.67
2018-01-26T16:44:37.767Z,29.13
2018-01-26T16:47:04.395Z,34.40
2018-01-26T16:49:31.624Z,59.90
2018-01-26T16:51:58.774Z,32.77
2018-01-26T16:54:27.493Z,35.00
2018-01-26T16:56:55.763Z,30.57
2018-01-26T16:59:24.749Z,40.07
2018-01-26T17:01:51.031Z,38.93
2018-01-26T17:04:32.583Z,44.27
2018-01-26T17:06:59.173Z,29.40
2018-01-26T17:09:26.777Z,33.90
2018-01-26T17:11:54.352Z,35.03
2018-01-26T17:14:22.829Z,34.00
2018-01-26T17:16:49.753Z,29.17
2018-01-26T17:19:16.868Z,30.27
2018-01-26T17:21:43.608Z,18.67
2018-01-26T17:24:14.796Z,27.23
2018-01-26T17:26:43.689Z,35.33
2018-01-26T17:29:10.119Z,23.43
2018-01-26T17:31:36.734Z,28.93
2018-01-26T17:34:05.031Z,29.23
2018-01-26T17:36:31.631Z,37.97
2018-01-26T17:38:58.418Z,25.27
2018-01-26T17:41:25.532Z,41.83
2018-01-26T17:43:53.046Z,28.03
2018-01-26T17:46:20.637Z,44.67
2018-01-26T17:48:47.628Z,36.83
2018-01-26T17:51:13.990Z,38.07
2018-01-26T17:53:45.059Z,47.73
2018-01-26T17:56:11.355Z,39.23
2018-01-26T17:58:37.800Z,63.07
2018-01-26T18:01:04.607Z,44.57
2018-01-26T18:03:32.730Z,46.20
2018-01-26T18:05:59.763Z,50.50
2018-01-26T18:08:26.304Z,62.70
2018-01-26T18:10:53.822Z,46.60
2018-01-26T18:13:22.669Z,45.53
2018-01-26T18:15:50.535Z,46.83
2018-01-26T18:18:18.202Z,40.07
2018-01-26T18:20:45.298Z,44.20
2018-01-26T18:23:13.311Z,38.50
2018-01-26T18:25:40.066Z,30.17
2018-01-26T18:28:06.970Z,26.13
2018-01-26T18:30:33.388Z,34.83
2018-01-26T18:32:59.907Z,22.50
2018-01-26T18:35:26.778Z,32.70
2018-01-26T18:37:53.107Z,19.83
2018-01-26T18:40:19.411Z,20.33
2018-01-26T18:42:46.421Z,37.13
2018-01-26T18:45:12.888Z,18.47
2018-01-26T18:47:39.354Z,41.67
2018-01-26T18:50:05.894Z,45.77
2018-01-26T18:52:32.457Z,35.43
2018-01-26T18:54:58.818Z,35.97
2018-01-26T18:57:25.545Z,21.97
2018-01-26T18:59:51.899Z,30.40
2018-01-26T19:02:18.902Z,55.40
2018-01-26T19:04:45.202Z,30.70
2018-01-26T19:07:12.429Z,26.50
2018-01-26T19:09:38.856Z,27.67
2018-01-26T19:12:06.439Z,38.90
2018-01-26T19:14:34.057Z,40.57
2018-01-26T19:17:01.394Z,32.77
2018-01-26T19:19:29.078Z,28.07
2018-01-26T19:21:56.214Z,24.77
2018-01-26T19:24:25.141Z,26.07
2018-01-26T19:29:30.701Z,30.63
2018-01-26T19:31:59.314Z,25.90
2018-01-26T19:34:26.096Z,25.70
2018-01-26T19:36:52.539Z,34.63
2018-01-26T19:39:19.483Z,19.97
2018-01-26T19:41:48.215Z,27.83
2018-01-26T19:44:14.903Z,29.63
2018-01-26T19:46:42.948Z,21.23
2018-01-26T19:49:10.824Z,23.10
2018-01-26T19:51:38.284Z,25.07
2018-01-26T19:54:06.075Z,22.77
2018-01-26T19:56:33.186Z,24.70
2018-01-26T19:59:00.209Z,35.97
2018-01-26T20:01:26.948Z,45.23
2018-01-26T20:04:04.290Z,20.17
2018-01-26T20:06:42.761Z,26.13
2018-01-26T20:09:10.307Z,19.43
2018-01-26T20:11:37.951Z,28.30
2018-01-26T20:14:14.879Z,27.57
2018-01-26T20:16:44.620Z,25.23
2018-01-26T20:19:15.919Z,20.73
2018-01-26T20:21:43.140Z,27.27
2018-01-26T20:24:11.359Z,23.63
2018-01-26T20:26:39.846Z,25.10
2018-01-26T20:29:07.464Z,18.83
2018-01-26T20:31:35.533Z,26.80
2018-01-26T20:34:05.743Z,28.20
2018-01-26T20:36:32.490Z,18.80
2018-01-26T20:39:00.283Z,20.63
2018-01-26T20:41:27.377Z,31.73
2018-01-26T20:43:56.130Z,25.73
2018-01-26T20:46:30.324Z,28.30
2018-01-26T20:49:01.816Z,33.00
2018-01-26T20:54:04.835Z,30.67
2018-01-26T20:56:31.286Z,25.50
2018-01-26T20:58:59.846Z,49.73
2018-01-26T21:01:26.960Z,41.00
2018-01-26T21:03:57.430Z,23.20
2018-01-26T21:06:28.118Z,23.23
2018-01-26T21:08:57.337Z,37.93
2018-01-26T21:11:28.255Z,19.40
2018-01-26T21:14:02.248Z,29.17
2018-01-26T21:16:33.733Z,23.23
2018-01-26T21:19:02.816Z,20.80
2018-01-26T21:21:33.326Z,19.63
2018-01-26T21:24:03.351Z,25.53
2018-01-26T21:26:33.849Z,23.37
2018-01-26T21:29:04.678Z,40.37
2018-01-26T21:31:36.162Z,26.07
2018-01-26T21:34:06.620Z,31.23
2018-01-26T21:36:35.491Z,26.80
2018-01-26T21:39:04.014Z,24.53
2018-01-26T21:41:32.646Z,26.07
2018-01-26T21:44:02.628Z,27.93
2018-01-26T21:46:32.476Z,30.97
2018-01-26T21:49:04.023Z,23.63
2018-01-26T21:51:35.590Z,20.10
2018-01-26T21:54:12.771Z,23.47
2018-01-26T21:56:41.258Z,17.43
2018-01-26T22:07:43.145Z,25.67
2018-01-26T22:10:21.224Z,16.97
2018-01-26T22:13:03.158Z,40.13
2018-01-26T22:21:53.987Z,17.57
2018-01-26T22:24:26.543Z,23.47
2018-01-26T22:27:02.257Z,28.20
2018-01-26T22:29:32.345Z,24.00
2018-01-26T22:32:05.844Z,22.70
2018-01-26T22:34:39.444Z,21.27
2018-01-26T22:37:09.477Z,18.63
2018-01-26T22:39:40.284Z,19.17
2018-01-26T22:42:09.512Z,27.57
2018-01-26T22:44:40.840Z,37.17
2018-01-26T22:47:11.288Z,29.60
2018-01-26T22:49:40.822Z,30.13
2018-01-26T22:52:13.126Z,29.03
2018-01-26T22:54:45.985Z,37.13
2018-01-26T22:57:18.828Z,41.50
2018-01-26T22:59:51.282Z,43.73
2018-01-26T23:02:18.243Z,37.37
2018-01-26T23:04:53.504Z,35.43
2018-01-26T23:07:25.016Z,32.90
2018-01-26T23:09:54.231Z,29.70
2018-01-26T23:12:33.018Z,25.10
2018-01-26T23:15:01.109Z,26.03
2018-01-26T23:20:08.832Z,22.23
2018-01-26T23:22:40.470Z,27.33
2018-01-26T23:25:12.842Z,19.77
2018-01-26T23:27:42.042Z,20.53
2018-01-26T23:30:18.405Z,20.23
2018-01-26T23:32:47.605Z,24.83
2018-01-26T23:35:22.638Z,19.37
2018-01-26T23:37:56.732Z,19.20
2018-01-26T23:40:33.930Z,15.63
2018-01-26T23:43:08.282Z,23.07
2018-01-26T23:45:38.026Z,25.77
2018-01-26T23:48:12.678Z,28.10
2018-01-26T23:50:46.852Z,20.40
2018-01-26T23:53:27.065Z,16.37
2018-01-26T23:55:59.777Z,15.73
2018-01-26T23:58:30.399Z,20.50
